Terminal Aerodrome Forecast
Issued by NWS Bismarck, ND

Home | Current Version | Previous Version | Text Only | Print | Product List | Glossary Off
Versions: 1 2 3 4 5 6 7 8 9 10 11 12 13 14 15

199
FTUS43 KBIS 211128
TAFBIS
TAF
KBIS 211128Z 2112/2212 12009KT P6SM SCT150
     FM211700 14021G30KT P6SM SCT045
     FM212200 15021G31KT P6SM BKN100
     FM221000 15013KT P6SM BKN025=

USA.gov is the U.S. government's official web portal to all federal, state and local government web resources and services.